createdAt,value
2017-03-04T00:01:03.386Z,-4.27
2017-03-04T00:02:13.713Z,-4.34
2017-03-04T00:03:24.399Z,-4.26
2017-03-04T00:04:35.104Z,-4.27
2017-03-04T00:05:45.808Z,-4.38
2017-03-04T00:06:56.532Z,-4.27
2017-03-04T00:08:07.219Z,-4.37
2017-03-04T00:09:17.531Z,-4.33
2017-03-04T00:10:27.847Z,-4.37
2017-03-04T00:11:38.565Z,-4.44
2017-03-04T00:12:49.259Z,-4.4
2017-03-04T00:13:59.560Z,-4.37
2017-03-04T00:15:10.248Z,-4.41
2017-03-04T00:16:20.996Z,-4.4
2017-03-04T00:17:31.725Z,-4.33
2017-03-04T00:18:42.433Z,-4.31
2017-03-04T00:19:53.145Z,-4.38
2017-03-04T00:21:03.461Z,-4.37
2017-03-04T00:22:14.167Z,-4.3
2017-03-04T00:23:24.852Z,-4.26
2017-03-04T00:24:35.553Z,-4.3
2017-03-04T00:25:46.275Z,-4.3
2017-03-04T00:26:56.985Z,-4.2
2017-03-04T00:28:07.690Z,-4.17
2017-03-04T00:29:18.387Z,-4.2
2017-03-04T00:30:29.072Z,-4.16
2017-03-04T00:31:39.772Z,-4.09
2017-03-04T00:32:50.493Z,-4.04
2017-03-04T00:34:01.195Z,-3.9
2017-03-04T00:35:11.903Z,-3.94
2017-03-04T00:36:22.596Z,-3.99
2017-03-04T00:37:33.290Z,-3.85
2017-03-04T00:38:44.013Z,-3.98
2017-03-04T00:39:54.726Z,-3.94
2017-03-04T00:41:05.422Z,-3.96
2017-03-04T00:42:16.120Z,-3.83
2017-03-04T00:43:26.840Z,-3.75
2017-03-04T00:44:37.152Z,-3.8
2017-03-04T00:45:47.853Z,-3.66
2017-03-04T00:46:58.555Z,-3.8
2017-03-04T00:48:09.252Z,-3.95
2017-03-04T00:49:19.545Z,-3.9
2017-03-04T00:50:30.257Z,-3.91
2017-03-04T00:51:40.953Z,-3.9
2017-03-04T00:52:51.646Z,-3.98
2017-03-04T00:54:02.334Z,-4.09
2017-03-04T00:55:12.687Z,-4.14
2017-03-04T00:56:23.378Z,-4.2
2017-03-04T00:57:34.077Z,-4.26
2017-03-04T00:58:44.785Z,-4.2
2017-03-04T00:59:55.482Z,-4.34
2017-03-04T01:01:06.171Z,-4.35
2017-03-04T01:02:16.863Z,-4.3
2017-03-04T01:03:27.565Z,-4.44
2017-03-04T01:04:38.259Z,-4.42
2017-03-04T01:05:48.952Z,-4.47
2017-03-04T01:06:59.654Z,-4.38
2017-03-04T01:08:10.439Z,-4.51
2017-03-04T01:09:21.153Z,-4.53
2017-03-04T01:10:31.849Z,-4.51
2017-03-04T01:11:42.547Z,-4.55
2017-03-04T01:12:53.244Z,-4.56
2017-03-04T01:14:03.935Z,-4.47
2017-03-04T01:15:14.631Z,-4.56
2017-03-04T01:16:24.944Z,-4.53
2017-03-04T01:17:35.633Z,-4.56
2017-03-04T01:18:45.926Z,-4.53
2017-03-04T01:19:56.629Z,-4.58
2017-03-04T01:21:07.345Z,-4.55
2017-03-04T01:22:18.048Z,-4.59
2017-03-04T01:23:28.743Z,-4.63
2017-03-04T01:24:39.443Z,-4.62
2017-03-04T01:25:50.167Z,-4.56
2017-03-04T01:27:00.862Z,-4.61
2017-03-04T01:28:11.584Z,-4.58
2017-03-04T01:29:22.300Z,-4.61
2017-03-04T01:30:32.614Z,-4.59
2017-03-04T01:31:43.314Z,-4.67
2017-03-04T01:32:54.011Z,-4.7
2017-03-04T01:34:04.701Z,-4.67
2017-03-04T01:35:15.396Z,-4.67
2017-03-04T01:36:25.724Z,-4.63
2017-03-04T01:37:36.415Z,-4.62
2017-03-04T01:38:47.133Z,-4.58
2017-03-04T01:39:57.847Z,-4.73
2017-03-04T01:41:08.549Z,-4.63
2017-03-04T01:42:19.236Z,-4.73
2017-03-04T01:43:29.941Z,-4.73
2017-03-04T01:44:40.993Z,-4.7
2017-03-04T01:45:51.715Z,-4.77
2017-03-04T01:47:02.004Z,-4.67
2017-03-04T01:48:12.701Z,-4.76
2017-03-04T01:49:23.403Z,-4.76
2017-03-04T01:50:33.706Z,-4.77
2017-03-04T01:51:44.406Z,-4.73
2017-03-04T01:52:55.109Z,-4.7
2017-03-04T01:54:05.812Z,-4.77
2017-03-04T01:55:16.516Z,-4.73
2017-03-04T01:56:27.218Z,-4.79
2017-03-04T01:57:37.910Z,-4.76
2017-03-04T01:58:48.603Z,-4.8
2017-03-04T01:59:59.332Z,-4.8
2017-03-04T02:01:10.050Z,-4.81
2017-03-04T02:02:20.766Z,-4.73
2017-03-04T02:03:31.468Z,-4.81
2017-03-04T02:04:42.158Z,-4.84
2017-03-04T02:05:52.872Z,-4.81
2017-03-04T02:07:03.583Z,-4.88
2017-03-04T02:08:13.884Z,-4.8
2017-03-04T02:09:24.578Z,-4.8
2017-03-04T02:10:35.303Z,-4.8
2017-03-04T02:11:45.991Z,-4.77
2017-03-04T02:12:56.684Z,-4.74
2017-03-04T02:14:07.010Z,-4.77
2017-03-04T02:15:17.309Z,-4.77
2017-03-04T02:16:28.013Z,-4.8
2017-03-04T02:17:38.319Z,-4.81
2017-03-04T02:18:49.034Z,-4.83
2017-03-04T02:19:59.723Z,-4.97
2017-03-04T02:21:10.424Z,-4.91
2017-03-04T02:22:21.139Z,-4.9
2017-03-04T02:23:31.831Z,-4.9
2017-03-04T02:24:42.550Z,-4.98
2017-03-04T02:25:53.253Z,-4.92
2017-03-04T02:27:03.566Z,-4.9
2017-03-04T02:28:14.271Z,-4.9
2017-03-04T02:29:24.980Z,-5.05
2017-03-04T02:30:35.704Z,-5.06
2017-03-04T02:31:46.390Z,-4.97
2017-03-04T02:32:57.098Z,-4.97
2017-03-04T02:34:07.795Z,-4.98
2017-03-04T02:35:18.483Z,-5.02
2017-03-04T02:36:29.186Z,-4.98
2017-03-04T02:37:39.889Z,-5
2017-03-04T02:38:50.583Z,-4.97
2017-03-04T02:40:01.284Z,-4.92
2017-03-04T02:41:11.997Z,-5
2017-03-04T02:42:22.705Z,-4.92
2017-03-04T02:43:33.000Z,-4.94
2017-03-04T02:44:43.709Z,-5
2017-03-04T02:45:54.427Z,-4.91
2017-03-04T02:47:05.149Z,-4.91
2017-03-04T02:48:15.886Z,-4.95
2017-03-04T02:49:26.198Z,-4.92
2017-03-04T02:50:36.899Z,-4.87
2017-03-04T02:51:47.598Z,-4.88
2017-03-04T02:52:58.322Z,-4.81
2017-03-04T02:54:09.016Z,-4.84
2017-03-04T02:55:19.745Z,-4.84
2017-03-04T02:56:30.449Z,-4.76
2017-03-04T02:57:41.159Z,-4.74
2017-03-04T02:58:51.863Z,-4.77
2017-03-04T03:00:02.580Z,-4.76
2017-03-04T03:01:12.879Z,-4.71
2017-03-04T03:02:23.573Z,-4.76
2017-03-04T03:03:34.295Z,-4.73
2017-03-04T03:04:45.002Z,-4.74
2017-03-04T03:05:55.698Z,-4.65
2017-03-04T03:07:06.445Z,-4.63
2017-03-04T03:08:17.158Z,-4.67
2017-03-04T03:09:27.869Z,-4.73
2017-03-04T03:10:38.567Z,-4.61
2017-03-04T03:11:49.267Z,-4.63
2017-03-04T03:12:59.966Z,-4.58
2017-03-04T03:14:09.886Z,-4.58
2017-03-04T03:15:20.211Z,-4.56
2017-03-04T03:16:30.915Z,-4.58
2017-03-04T03:17:41.607Z,-4.61
2017-03-04T03:18:52.302Z,-4.61
2017-03-04T03:20:02.987Z,-4.59
2017-03-04T03:21:12.482Z,-4.59
2017-03-04T03:22:23.189Z,-4.59
2017-03-04T03:23:33.892Z,-4.62
2017-03-04T03:24:44.590Z,-4.53
2017-03-04T03:25:54.887Z,-4.56
2017-03-04T03:27:05.203Z,-4.56
2017-03-04T03:28:15.906Z,-4.45
2017-03-04T03:29:26.596Z,-4.52
2017-03-04T03:30:37.306Z,-4.44
2017-03-04T03:31:48.025Z,-4.45
2017-03-04T03:32:58.720Z,-4.51
2017-03-04T03:34:09.434Z,-4.42
2017-03-04T03:35:20.175Z,-4.4
2017-03-04T03:36:30.910Z,-4.53
2017-03-04T03:37:41.598Z,-4.52
2017-03-04T03:38:52.306Z,-4.67
2017-03-04T03:40:02.993Z,-4.8
2017-03-04T03:41:13.327Z,-4.87
2017-03-04T03:42:24.028Z,-4.8
2017-03-04T03:43:34.746Z,-4.87
2017-03-04T03:44:45.445Z,-4.87
2017-03-04T03:45:56.136Z,-4.95
2017-03-04T03:47:06.847Z,-4.92
2017-03-04T03:48:17.573Z,-4.88
2017-03-04T03:49:28.279Z,-4.98
2017-03-04T03:50:38.993Z,-4.94
2017-03-04T03:51:49.697Z,-4.91
2017-03-04T03:53:00.393Z,-4.95
2017-03-04T03:54:11.095Z,-4.92
2017-03-04T03:55:21.801Z,-4.91
2017-03-04T03:56:32.492Z,-4.95
2017-03-04T03:57:43.196Z,-4.92
2017-03-04T03:58:53.907Z,-4.98
2017-03-04T04:00:04.604Z,-4.94
2017-03-04T04:01:14.925Z,-4.9
2017-03-04T04:02:25.617Z,-4.94
2017-03-04T04:03:36.337Z,-4.95
2017-03-04T04:04:47.055Z,-5.01
2017-03-04T04:05:57.744Z,-4.97
2017-03-04T04:07:08.473Z,-5.02
2017-03-04T04:08:19.166Z,-5.09
2017-03-04T04:09:29.873Z,-5
2017-03-04T04:10:40.190Z,-4.98
2017-03-04T04:11:50.903Z,-5.06
2017-03-04T04:13:01.603Z,-5.05
2017-03-04T04:14:11.923Z,-5.01
2017-03-04T04:15:22.625Z,-4.98
2017-03-04T04:16:32.928Z,-5.02
2017-03-04T04:17:43.649Z,-5.02
2017-03-04T04:18:54.337Z,-5.05
2017-03-04T04:20:05.029Z,-5.02
2017-03-04T04:21:15.722Z,-5.08
2017-03-04T04:22:26.413Z,-5.05
2017-03-04T04:23:39.204Z,-5.05
2017-03-04T04:24:49.917Z,-5
2017-03-04T04:26:00.628Z,-5.02
2017-03-04T04:27:11.325Z,-5.02
2017-03-04T04:28:22.027Z,-5
2017-03-04T04:29:32.729Z,-5.05
2017-03-04T04:30:43.450Z,-5.09
2017-03-04T04:31:54.134Z,-5.05
2017-03-04T04:33:04.860Z,-5.09
2017-03-04T04:34:15.547Z,-5.12
2017-03-04T04:35:26.237Z,-5.17
2017-03-04T04:36:36.933Z,-5.09
2017-03-04T04:37:47.651Z,-5.16
2017-03-04T04:38:57.953Z,-5.16
2017-03-04T04:40:08.263Z,-5.2
2017-03-04T04:41:18.572Z,-5.27
2017-03-04T04:42:28.864Z,-5.2
2017-03-04T04:43:39.586Z,-5.21
2017-03-04T04:44:50.283Z,-5.21
2017-03-04T04:46:00.985Z,-5.17
2017-03-04T04:47:11.309Z,-5.27
2017-03-04T04:48:22.015Z,-5.23
2017-03-04T04:49:32.319Z,-5.3
2017-03-04T04:50:43.022Z,-5.17
2017-03-04T04:51:53.737Z,-5.23
2017-03-04T04:53:04.432Z,-5.28
2017-03-04T04:54:15.129Z,-5.27
2017-03-04T04:55:25.816Z,-5.23
2017-03-04T04:56:36.503Z,-5.19
2017-03-04T04:57:47.199Z,-5.3
2017-03-04T04:58:57.940Z,-5.25
2017-03-04T05:00:08.634Z,-5.27
2017-03-04T05:01:18.979Z,-5.25
2017-03-04T05:02:29.663Z,-5.28
2017-03-04T05:03:39.964Z,-5.23
2017-03-04T05:04:50.650Z,-5.34
2017-03-04T05:06:01.379Z,-5.23
2017-03-04T05:07:11.690Z,-5.27
2017-03-04T05:08:22.391Z,-5.2
2017-03-04T05:09:32.689Z,-5.27
2017-03-04T05:10:43.398Z,-5.27
2017-03-04T05:11:54.091Z,-5.23
2017-03-04T05:13:04.780Z,-5.38
2017-03-04T05:14:15.482Z,-5.41
2017-03-04T05:15:26.174Z,-5.35
2017-03-04T05:16:36.892Z,-5.39
2017-03-04T05:17:47.583Z,-5.34
2017-03-04T05:18:58.287Z,-5.45
2017-03-04T05:20:08.994Z,-5.41
2017-03-04T05:21:19.685Z,-5.41
2017-03-04T05:22:29.984Z,-5.41
2017-03-04T05:23:40.672Z,-5.49
2017-03-04T05:24:51.384Z,-5.38
2017-03-04T05:26:02.080Z,-5.35
2017-03-04T05:27:12.370Z,-5.43
2017-03-04T05:28:23.074Z,-5.34
2017-03-04T05:29:33.791Z,-5.39
2017-03-04T05:30:44.508Z,-5.37
2017-03-04T05:31:55.209Z,-5.27
2017-03-04T05:33:05.100Z,-5.27
2017-03-04T05:34:15.796Z,-5.27
2017-03-04T05:35:26.107Z,-5.31
2017-03-04T05:36:36.816Z,-5.28
2017-03-04T05:37:47.525Z,-5.32
2017-03-04T05:38:58.230Z,-5.27
2017-03-04T05:40:08.941Z,-5.2
2017-03-04T05:41:19.637Z,-5.2
2017-03-04T05:42:30.352Z,-5.23
2017-03-04T05:43:41.036Z,-5.17
2017-03-04T05:44:51.744Z,-5.25
2017-03-04T05:46:02.469Z,-5.25
2017-03-04T05:47:13.167Z,-5.27
2017-03-04T05:48:23.865Z,-5.21
2017-03-04T05:49:34.561Z,-5.27
2017-03-04T05:50:45.247Z,-5.27
2017-03-04T05:51:55.963Z,-5.28
2017-03-04T05:53:06.673Z,-5.21
2017-03-04T05:54:16.967Z,-5.25
2017-03-04T05:55:27.301Z,-5.21
2017-03-04T05:56:37.611Z,-5.19
2017-03-04T05:57:48.298Z,-5.21
2017-03-04T05:58:59.008Z,-5.21
2017-03-04T06:00:09.709Z,-5.12
2017-03-04T06:01:20.014Z,-5.2
2017-03-04T06:02:30.698Z,-5.17
2017-03-04T06:03:41.413Z,-5.21
2017-03-04T06:04:52.124Z,-5.19
2017-03-04T06:06:02.818Z,-5.13
2017-03-04T06:07:13.530Z,-5.13
2017-03-04T06:08:23.823Z,-5.2
2017-03-04T06:09:34.520Z,-5.23
2017-03-04T06:10:45.214Z,-5.2
2017-03-04T06:11:55.922Z,-5.21
2017-03-04T06:13:06.655Z,-5.21
2017-03-04T06:14:17.373Z,-5.2
2017-03-04T06:15:28.079Z,-5.12
2017-03-04T06:16:38.772Z,-5.16
2017-03-04T06:17:49.477Z,-5.16
2017-03-04T06:19:00.174Z,-5.12
2017-03-04T06:20:10.874Z,-5.06
2017-03-04T06:21:21.589Z,-5.1
2017-03-04T06:22:31.887Z,-5.12
2017-03-04T06:23:42.577Z,-5.08
2017-03-04T06:24:53.274Z,-5.16
2017-03-04T06:26:03.584Z,-5.09
2017-03-04T06:27:14.275Z,-5.09
2017-03-04T06:28:24.595Z,-5.13
2017-03-04T06:29:34.915Z,-5.09
2017-03-04T06:30:45.623Z,-5.02
2017-03-04T06:31:56.314Z,-4.98
2017-03-04T06:33:07.027Z,-4.95
2017-03-04T06:34:17.717Z,-5.05
2017-03-04T06:35:28.432Z,-5.01
2017-03-04T06:36:39.144Z,-5.05
2017-03-04T06:37:49.850Z,-5.05
2017-03-04T06:39:00.554Z,-5.05
2017-03-04T06:40:10.861Z,-5
2017-03-04T06:41:21.576Z,-4.98
2017-03-04T06:42:31.912Z,-4.98
2017-03-04T06:43:42.622Z,-5.06
2017-03-04T06:44:53.324Z,-4.91
2017-03-04T06:46:04.028Z,-4.98
2017-03-04T06:47:14.727Z,-4.98
2017-03-04T06:48:25.026Z,-4.94
2017-03-04T06:49:35.735Z,-4.94
2017-03-04T06:50:46.429Z,-5.01
2017-03-04T06:51:57.191Z,-4.92
2017-03-04T06:53:07.900Z,-5.01
2017-03-04T06:54:18.598Z,-4.98
2017-03-04T06:55:29.292Z,-5.08
2017-03-04T06:56:39.982Z,-5
2017-03-04T06:57:50.287Z,-5.05
2017-03-04T06:59:00.976Z,-4.9
2017-03-04T07:00:11.685Z,-5.05
2017-03-04T07:01:22.387Z,-4.88
2017-03-04T07:02:33.088Z,-5.05
2017-03-04T07:03:43.794Z,-4.91
2017-03-04T07:04:54.509Z,-4.91
2017-03-04T07:06:04.807Z,-4.9
2017-03-04T07:07:15.499Z,-4.95
2017-03-04T07:08:26.238Z,-4.84
2017-03-04T07:09:36.930Z,-4.84
2017-03-04T07:10:47.632Z,-4.79
2017-03-04T07:11:58.335Z,-4.8
2017-03-04T07:13:09.032Z,-4.76
2017-03-04T07:14:19.731Z,-4.7
2017-03-04T07:15:30.064Z,-4.77
2017-03-04T07:16:40.770Z,-4.74
2017-03-04T07:17:51.466Z,-4.67
2017-03-04T07:19:01.768Z,-4.71
2017-03-04T07:20:12.485Z,-4.58
2017-03-04T07:21:23.192Z,-4.56
2017-03-04T07:22:33.901Z,-4.58
2017-03-04T07:23:44.597Z,-4.56
2017-03-04T07:24:55.303Z,-4.53
2017-03-04T07:26:06.006Z,-4.58
2017-03-04T07:27:16.331Z,-4.49
2017-03-04T07:28:27.025Z,-4.4
2017-03-04T07:29:37.747Z,-4.42
2017-03-04T07:30:48.451Z,-4.33
2017-03-04T07:31:59.182Z,-4.24
2017-03-04T07:33:09.874Z,-4.24
2017-03-04T07:34:20.592Z,-4.16
2017-03-04T07:35:31.297Z,-4.02
2017-03-04T07:36:41.994Z,-3.96
2017-03-04T07:37:52.698Z,-3.95
2017-03-04T07:39:03.408Z,-3.99
2017-03-04T07:40:14.148Z,-4.01
2017-03-04T07:41:24.854Z,-3.94
2017-03-04T07:42:35.157Z,-3.95
2017-03-04T07:43:45.843Z,-3.95
2017-03-04T07:44:56.535Z,-4.06
2017-03-04T07:46:07.240Z,-4.01
2017-03-04T07:47:17.928Z,-3.98
2017-03-04T07:48:28.635Z,-3.99
2017-03-04T07:49:39.361Z,-3.85
2017-03-04T07:50:50.045Z,-3.78
2017-03-04T07:52:00.742Z,-3.68
2017-03-04T07:53:11.447Z,-3.71
2017-03-04T07:54:22.141Z,-3.75
2017-03-04T07:55:32.877Z,-3.64
2017-03-04T07:56:43.595Z,-3.59
2017-03-04T07:57:54.322Z,-3.62
2017-03-04T07:59:05.016Z,-3.61
2017-03-04T08:00:15.708Z,-3.61
2017-03-04T08:01:28.416Z,-3.75
2017-03-04T08:02:39.142Z,-3.83
2017-03-04T08:03:49.836Z,-3.96
2017-03-04T08:05:00.534Z,-3.98
2017-03-04T08:06:11.263Z,-3.95
2017-03-04T08:07:21.990Z,-3.88
2017-03-04T08:08:32.290Z,-3.95
2017-03-04T08:09:43.028Z,-3.95
2017-03-04T08:10:53.720Z,-4.02
2017-03-04T08:12:04.425Z,-3.99
2017-03-04T08:13:14.751Z,-3.96
2017-03-04T08:14:25.052Z,-3.96
2017-03-04T08:15:35.755Z,-3.99
2017-03-04T08:16:46.468Z,-3.88
2017-03-04T08:17:57.171Z,-3.8
2017-03-04T08:19:07.494Z,-3.77
2017-03-04T08:20:18.204Z,-3.69
2017-03-04T08:21:28.905Z,-3.66
2017-03-04T08:22:39.600Z,-3.64
2017-03-04T08:23:50.324Z,-3.58
2017-03-04T08:25:01.040Z,-3.56
2017-03-04T08:26:11.355Z,-3.59
2017-03-04T08:27:22.044Z,-3.59
2017-03-04T08:28:32.798Z,-3.48
2017-03-04T08:29:43.509Z,-3.53
2017-03-04T08:30:54.207Z,-3.53
2017-03-04T08:32:04.919Z,-3.48
2017-03-04T08:33:15.612Z,-3.48
2017-03-04T08:34:25.936Z,-3.36
2017-03-04T08:35:36.230Z,-3.26
2017-03-04T08:36:46.918Z,-3.17
2017-03-04T08:37:57.228Z,-3.07
2017-03-04T08:39:07.921Z,-3.14
2017-03-04T08:40:18.650Z,-3.04
2017-03-04T08:41:29.340Z,-3.05
2017-03-04T08:42:40.096Z,-3.05
2017-03-04T08:43:50.800Z,-3.02
2017-03-04T08:45:01.504Z,-2.98
2017-03-04T08:46:12.218Z,-2.91
2017-03-04T08:47:22.928Z,-2.84
2017-03-04T08:48:33.654Z,-2.83
2017-03-04T08:49:44.360Z,-2.73
2017-03-04T08:50:55.063Z,-2.55
2017-03-04T08:52:05.786Z,-2.62
2017-03-04T08:53:16.483Z,-2.51
2017-03-04T08:54:26.788Z,-2.5
2017-03-04T08:55:37.488Z,-2.39
2017-03-04T08:56:48.186Z,-2.34
2017-03-04T08:57:58.913Z,-2.47
2017-03-04T08:59:09.631Z,-2.39
2017-03-04T09:00:20.337Z,-2.36
2017-03-04T09:01:31.066Z,-2.34
2017-03-04T09:02:41.759Z,-2.32
2017-03-04T09:03:52.472Z,-2.25
2017-03-04T09:05:03.167Z,-2.14
2017-03-04T09:06:13.481Z,-2
2017-03-04T09:07:24.175Z,-1.89
2017-03-04T09:08:34.907Z,-1.81
2017-03-04T09:09:45.633Z,-1.69
2017-03-04T09:10:56.369Z,-1.63
2017-03-04T09:12:07.072Z,-1.74
2017-03-04T09:13:17.381Z,-1.79
2017-03-04T09:14:28.082Z,-1.71
2017-03-04T09:15:38.791Z,-1.82
2017-03-04T09:16:49.516Z,-1.81
2017-03-04T09:18:00.228Z,-1.75
2017-03-04T09:19:10.941Z,-1.66
2017-03-04T09:20:21.642Z,-1.63
2017-03-04T09:21:31.973Z,-1.64
2017-03-04T09:22:42.666Z,-1.71
2017-03-04T09:23:53.359Z,-1.78
2017-03-04T09:25:04.072Z,-1.72
2017-03-04T09:26:14.760Z,-1.86
2017-03-04T09:27:25.456Z,-1.9
2017-03-04T09:28:36.237Z,-2.1
2017-03-04T09:29:46.945Z,-2.08
2017-03-04T09:30:57.681Z,-2.07
2017-03-04T09:32:08.398Z,-2
2017-03-04T09:33:19.131Z,-1.93
2017-03-04T09:34:29.828Z,-2.02
2017-03-04T09:35:40.542Z,-2.05
2017-03-04T09:36:51.266Z,-2.05
2017-03-04T09:38:01.970Z,-2.08
2017-03-04T09:39:12.674Z,-2.02
2017-03-04T09:40:23.398Z,-2
2017-03-04T09:41:36.100Z,-1.84
2017-03-04T09:42:46.799Z,-1.74
2017-03-04T09:43:57.495Z,-1.64
2017-03-04T09:45:07.815Z,-1.54
2017-03-04T09:46:18.532Z,-1.56
2017-03-04T09:47:29.227Z,-1.39
2017-03-04T09:48:39.929Z,-1.38
2017-03-04T09:49:50.621Z,-1.3
2017-03-04T09:51:01.346Z,-1.29
2017-03-04T09:52:11.687Z,-1.12
2017-03-04T09:53:22.411Z,-1.12
2017-03-04T09:54:33.127Z,-1.06
2017-03-04T09:55:43.838Z,-1.19
2017-03-04T09:56:54.557Z,-1.21
2017-03-04T09:58:05.263Z,-1.29
2017-03-04T09:59:15.974Z,-1.32
2017-03-04T10:00:26.687Z,-1.24
2017-03-04T10:01:37.411Z,-1.07
2017-03-04T10:02:48.107Z,-1.15
2017-03-04T10:03:58.811Z,-1.04
2017-03-04T10:05:09.120Z,-0.96
2017-03-04T10:06:19.814Z,-0.72
2017-03-04T10:07:30.530Z,-0.75
2017-03-04T10:08:41.227Z,-0.7
2017-03-04T10:09:51.932Z,-0.69
2017-03-04T10:11:02.639Z,-0.56
2017-03-04T10:12:13.347Z,-0.39
2017-03-04T10:13:24.067Z,-0.3
2017-03-04T10:14:34.805Z,-0.09
2017-03-04T10:15:45.512Z,-0.31
2017-03-04T10:16:56.225Z,-0.48
2017-03-04T10:18:06.925Z,-0.54
2017-03-04T10:19:17.657Z,-0.62
2017-03-04T10:20:28.350Z,-0.51
2017-03-04T10:21:39.084Z,-0.46
2017-03-04T10:22:49.800Z,-0.67
2017-03-04T10:24:00.534Z,-0.69
2017-03-04T10:25:10.849Z,-0.74
2017-03-04T10:26:21.580Z,-0.66
2017-03-04T10:27:31.899Z,-0.59
2017-03-04T10:28:42.637Z,-0.45
2017-03-04T10:29:53.372Z,-0.62
2017-03-04T10:31:04.072Z,-0.77
2017-03-04T10:32:14.810Z,-0.91
2017-03-04T10:33:25.521Z,-0.94
2017-03-04T10:34:36.227Z,-0.94
2017-03-04T10:35:46.931Z,-1.11
2017-03-04T10:36:57.637Z,-1.14
2017-03-04T10:38:08.338Z,-1.07
2017-03-04T10:39:19.058Z,-1.14
2017-03-04T10:40:29.771Z,-1.01
2017-03-04T10:41:40.499Z,-1.03
2017-03-04T10:42:51.197Z,-0.94
2017-03-04T10:44:01.530Z,-0.85
2017-03-04T10:45:12.228Z,-0.82
2017-03-04T10:46:22.950Z,-0.78
2017-03-04T10:47:33.657Z,-0.78
2017-03-04T10:48:44.353Z,-0.75
2017-03-04T10:49:54.671Z,-0.93
2017-03-04T10:51:05.366Z,-0.97
2017-03-04T10:52:16.073Z,-0.99
2017-03-04T10:53:26.786Z,-1.01
2017-03-04T10:54:37.085Z,-1.04
2017-03-04T10:55:47.791Z,-1.17
2017-03-04T10:56:58.499Z,-1.24
2017-03-04T10:58:09.203Z,-1.29
2017-03-04T10:59:19.910Z,-1.14
2017-03-04T11:00:30.613Z,-0.87
2017-03-04T11:01:41.324Z,-0.97
2017-03-04T11:02:52.023Z,-1.17
2017-03-04T11:04:02.735Z,-1.15
2017-03-04T11:05:13.446Z,-1.09
2017-03-04T11:06:24.169Z,-0.97
2017-03-04T11:07:34.872Z,-0.82
2017-03-04T11:08:45.574Z,-0.72
2017-03-04T11:09:55.888Z,-0.64
2017-03-04T11:11:06.188Z,-0.44
2017-03-04T11:12:16.933Z,-0.45
2017-03-04T11:13:27.639Z,-0.49
2017-03-04T11:14:38.353Z,-0.64
2017-03-04T11:15:49.047Z,-0.51
2017-03-04T11:16:59.780Z,-0.57
2017-03-04T11:18:10.487Z,-0.67
2017-03-04T11:19:20.791Z,-0.77
2017-03-04T11:20:31.497Z,-0.77
2017-03-04T11:21:42.228Z,-0.74
2017-03-04T11:22:52.932Z,-0.77
2017-03-04T11:24:03.652Z,-0.94
2017-03-04T11:25:14.350Z,-0.74
2017-03-04T11:26:25.072Z,-0.89
2017-03-04T11:27:35.518Z,-0.89
2017-03-04T11:28:46.225Z,-0.78
2017-03-04T11:29:56.928Z,-0.81
2017-03-04T11:31:07.621Z,-0.7
2017-03-04T11:32:17.946Z,-0.64
2017-03-04T11:33:28.641Z,-0.6
2017-03-04T11:34:39.346Z,-0.53
2017-03-04T11:35:50.051Z,-0.49
2017-03-04T11:37:00.761Z,-0.46
2017-03-04T11:38:11.481Z,-0.44
2017-03-04T11:39:22.179Z,-0.39
2017-03-04T11:40:32.503Z,-0.54
2017-03-04T11:41:43.199Z,-0.6
2017-03-04T11:42:53.888Z,-0.56
2017-03-04T11:44:04.602Z,-0.53
2017-03-04T11:45:14.532Z,-0.53
2017-03-04T11:46:25.235Z,-0.51
2017-03-04T11:47:35.959Z,-0.54
2017-03-04T11:48:46.653Z,-0.49
2017-03-04T11:49:57.366Z,-0.53
2017-03-04T11:51:08.089Z,-0.57
2017-03-04T11:52:18.799Z,-0.49
2017-03-04T11:53:29.509Z,-0.42
2017-03-04T11:54:40.223Z,-0.38
2017-03-04T11:55:50.546Z,-0.31
2017-03-04T11:57:01.276Z,-0.13
2017-03-04T11:58:11.588Z,0.01
2017-03-04T11:59:22.304Z,0.06
2017-03-04T12:00:33.005Z,0.08
2017-03-04T12:01:43.712Z,0
2017-03-04T12:02:54.446Z,-0.05
2017-03-04T12:04:05.174Z,-0.06
2017-03-04T12:05:15.883Z,-0.03
2017-03-04T12:06:26.588Z,-0.07
2017-03-04T12:07:37.299Z,-0.13
2017-03-04T12:08:48.043Z,-0.18
2017-03-04T12:09:58.772Z,-0.21
2017-03-04T12:11:09.477Z,-0.17
2017-03-04T12:12:20.197Z,-0.38
2017-03-04T12:13:30.890Z,-0.45
2017-03-04T12:14:41.583Z,-0.51
2017-03-04T12:15:52.284Z,-0.59
2017-03-04T12:17:02.990Z,-0.67
2017-03-04T12:18:13.718Z,-0.63
2017-03-04T12:19:24.469Z,-0.69
2017-03-04T12:20:35.165Z,-0.72
2017-03-04T12:21:45.877Z,-0.74
2017-03-04T12:22:56.585Z,-0.74
2017-03-04T12:24:07.285Z,-0.74
2017-03-04T12:25:17.612Z,-0.67
2017-03-04T12:26:28.315Z,-0.53
2017-03-04T12:27:38.610Z,-0.39
2017-03-04T12:28:49.303Z,-0.42
2017-03-04T12:29:59.997Z,-0.23
2017-03-04T12:31:10.300Z,-0.21
2017-03-04T12:32:20.620Z,-0.09
2017-03-04T12:33:31.316Z,-0.05
2017-03-04T12:34:42.024Z,-0.03
2017-03-04T12:35:52.738Z,-0.07
2017-03-04T12:37:03.448Z,-0.15
2017-03-04T12:38:13.785Z,-0.2
2017-03-04T12:39:24.098Z,-0.21
2017-03-04T12:40:34.800Z,-0.1
2017-03-04T12:41:45.579Z,0.06
2017-03-04T12:42:56.280Z,-0.07
2017-03-04T12:44:07.002Z,-0.03
2017-03-04T12:45:17.704Z,-0.02
2017-03-04T12:46:28.418Z,-0.12
2017-03-04T12:47:39.122Z,-0.1
2017-03-04T12:48:49.834Z,-0.13
2017-03-04T12:50:00.531Z,-0.21
2017-03-04T12:51:11.250Z,-0.42
2017-03-04T12:52:21.971Z,-0.42
2017-03-04T12:53:32.677Z,-0.45
2017-03-04T12:54:43.395Z,-0.36
2017-03-04T12:55:54.115Z,-0.39
2017-03-04T12:57:04.812Z,-0.46
2017-03-04T12:58:15.508Z,-0.67
2017-03-04T12:59:26.213Z,-0.74
2017-03-04T13:00:36.938Z,-0.84
2017-03-04T13:01:48.012Z,-0.87
2017-03-04T13:02:58.709Z,-0.78
2017-03-04T13:04:09.037Z,-0.66
2017-03-04T13:05:19.726Z,-0.66
2017-03-04T13:06:30.436Z,-0.44
2017-03-04T13:07:41.133Z,-0.45
2017-03-04T13:08:51.856Z,-0.48
2017-03-04T13:10:02.561Z,-0.31
2017-03-04T13:11:13.263Z,-0.21
2017-03-04T13:12:23.982Z,-0.17
2017-03-04T13:13:34.681Z,0.06
2017-03-04T13:14:45.013Z,0.18
2017-03-04T13:15:55.736Z,0.26
2017-03-04T13:17:06.461Z,0.26
2017-03-04T13:18:17.175Z,0.29
2017-03-04T13:19:27.898Z,0.16
2017-03-04T13:20:38.610Z,0.12
2017-03-04T13:21:48.911Z,0.06
2017-03-04T13:22:59.613Z,0.08
2017-03-04T13:24:10.324Z,0.13
2017-03-04T13:25:21.031Z,0.05
2017-03-04T13:26:31.738Z,0.09
2017-03-04T13:27:42.442Z,0.34
2017-03-04T13:28:53.159Z,0.4
2017-03-04T13:30:03.880Z,0.45
2017-03-04T13:31:14.186Z,0.33
2017-03-04T13:32:24.883Z,0.39
2017-03-04T13:33:35.596Z,-0.07
2017-03-04T13:34:46.295Z,-0.05
2017-03-04T13:35:57.014Z,0.05
2017-03-04T13:37:07.720Z,0.16
2017-03-04T13:38:18.424Z,0.3
2017-03-04T13:39:29.128Z,0.34
2017-03-04T13:40:39.851Z,0.33
2017-03-04T13:41:50.204Z,0.45
2017-03-04T13:43:00.904Z,0.48
2017-03-04T13:44:11.624Z,0.3
2017-03-04T13:45:22.351Z,0.48
2017-03-04T13:46:32.653Z,0.49
2017-03-04T13:47:43.364Z,0.49
2017-03-04T13:48:54.088Z,0.45
2017-03-04T13:50:04.789Z,0.37
2017-03-04T13:51:15.491Z,0.16
2017-03-04T13:52:25.818Z,0.24
2017-03-04T13:53:36.529Z,0.26
2017-03-04T13:54:46.852Z,0.34
2017-03-04T13:55:57.563Z,0.45
2017-03-04T13:57:07.888Z,0.36
2017-03-04T13:58:18.590Z,0.3
2017-03-04T13:59:29.320Z,0.05
2017-03-04T14:00:40.045Z,-0.05
2017-03-04T14:01:50.763Z,-0.12
2017-03-04T14:03:01.473Z,-0.09
2017-03-04T14:04:12.162Z,-0.13
2017-03-04T14:05:22.856Z,-0.05
2017-03-04T14:06:33.161Z,-0.13
2017-03-04T14:07:43.879Z,-0.05
2017-03-04T14:08:54.608Z,-0.03
2017-03-04T14:10:04.913Z,-0.15
2017-03-04T14:11:15.632Z,-0.21
2017-03-04T14:12:26.336Z,-0.42
2017-03-04T14:13:37.047Z,-0.44
2017-03-04T14:14:47.362Z,-0.56
2017-03-04T14:15:58.059Z,-0.59
2017-03-04T14:17:08.761Z,-0.69
2017-03-04T14:18:19.478Z,-0.7
2017-03-04T14:19:30.192Z,-0.69
2017-03-04T14:20:40.914Z,-0.62
2017-03-04T14:21:51.623Z,-0.67
2017-03-04T14:23:02.318Z,-0.57
2017-03-04T14:24:12.663Z,-0.53
2017-03-04T14:25:23.385Z,-0.62
2017-03-04T14:26:34.082Z,-0.54
2017-03-04T14:27:44.787Z,-0.64
2017-03-04T14:28:55.501Z,-0.82
2017-03-04T14:30:06.216Z,-0.78
2017-03-04T14:31:16.951Z,-0.72
2017-03-04T14:32:27.261Z,-0.72
2017-03-04T14:33:37.957Z,-0.67
2017-03-04T14:34:48.264Z,-0.56
2017-03-04T14:35:58.970Z,-0.53
2017-03-04T14:37:09.670Z,-0.51
2017-03-04T14:38:19.996Z,-0.49
2017-03-04T14:39:30.714Z,-0.69
2017-03-04T14:40:41.420Z,-0.78
2017-03-04T14:41:51.709Z,-0.82
2017-03-04T14:43:02.434Z,-0.78
2017-03-04T14:44:13.127Z,-0.77
2017-03-04T14:45:23.847Z,-0.62
2017-03-04T14:46:34.570Z,-0.77
2017-03-04T14:47:45.299Z,-0.81
2017-03-04T14:48:55.609Z,-0.85
2017-03-04T14:50:06.314Z,-0.94
2017-03-04T14:51:17.014Z,-0.89
2017-03-04T14:52:26.526Z,-0.8
2017-03-04T14:53:37.226Z,-0.72
2017-03-04T14:54:47.528Z,-0.72
2017-03-04T14:55:58.237Z,-0.93
2017-03-04T14:57:08.942Z,-0.87
2017-03-04T14:58:19.651Z,-0.87
2017-03-04T14:59:29.575Z,-1.06
2017-03-04T15:00:39.865Z,-0.97
2017-03-04T15:01:50.160Z,-1.07
2017-03-04T15:03:00.874Z,-1.12
2017-03-04T15:04:11.577Z,-1.17
2017-03-04T15:05:21.875Z,-1.18
2017-03-04T15:06:31.781Z,-1.4
2017-03-04T15:07:42.076Z,-1.38
2017-03-04T15:08:52.785Z,-1.42
2017-03-04T15:10:03.483Z,-1.38
2017-03-04T15:11:13.793Z,-1.46
2017-03-04T15:12:24.496Z,-1.51
2017-03-04T15:13:35.199Z,-1.53
2017-03-04T15:14:45.515Z,-1.53
2017-03-04T15:15:55.818Z,-1.58